createdAt,value
2018-04-02T00:00:24.005Z,110.20
2018-04-02T00:01:23.996Z,110.00
2018-04-02T00:02:23.987Z,110.40
2018-04-02T00:03:23.977Z,112.50
2018-04-02T00:04:23.967Z,110.80
2018-04-02T00:05:23.956Z,111.70
2018-04-02T00:06:23.946Z,109.50
2018-04-02T00:07:23.934Z,111.30
2018-04-02T00:08:23.925Z,110.70
2018-04-02T00:09:23.915Z,113.50
2018-04-02T00:10:23.906Z,115.80
2018-04-02T00:11:23.951Z,118.30
2018-04-02T00:12:23.890Z,118.20
2018-04-02T00:13:23.877Z,119.00
2018-04-02T00:14:23.865Z,119.90
2018-04-02T00:15:23.857Z,120.50
2018-04-02T00:16:23.891Z,123.10
2018-04-02T00:17:23.838Z,120.20
2018-04-02T00:18:23.827Z,118.70
2018-04-02T00:19:23.818Z,117.60
2018-04-02T00:20:23.813Z,119.90
2018-04-02T00:21:23.804Z,118.20
2018-04-02T00:22:23.782Z,120.30
2018-04-02T00:23:23.773Z,119.50
2018-04-02T00:24:23.766Z,119.80
2018-04-02T00:25:23.757Z,118.80
2018-04-02T00:26:23.747Z,118.30
2018-04-02T00:27:23.737Z,117.20
2018-04-02T00:28:23.723Z,117.00
2018-04-02T00:29:23.712Z,115.30
2018-04-02T00:30:23.706Z,116.70
2018-04-02T00:31:23.697Z,119.70
2018-04-02T00:32:23.686Z,119.10
2018-04-02T00:33:23.709Z,119.60
2018-04-02T00:34:23.665Z,117.00
2018-04-02T00:35:23.653Z,118.20
2018-04-02T00:36:23.652Z,118.60
2018-04-02T00:37:23.635Z,118.40
2018-04-02T00:38:23.624Z,117.80
2018-04-02T00:39:23.614Z,117.30
2018-04-02T00:40:23.599Z,118.30
2018-04-02T00:41:23.590Z,118.40
2018-04-02T00:42:23.582Z,118.20
2018-04-02T00:43:23.573Z,114.90
2018-04-02T00:44:23.562Z,116.80
2018-04-02T00:45:23.553Z,113.30
2018-04-02T00:46:23.541Z,117.10
2018-04-02T00:47:23.533Z,118.40
2018-04-02T00:48:23.526Z,117.40
2018-04-02T00:49:23.513Z,117.90
2018-04-02T00:50:23.504Z,114.30
2018-04-02T00:51:23.495Z,116.20
2018-04-02T00:52:23.484Z,113.80
2018-04-02T00:53:23.469Z,114.50
2018-04-02T00:54:23.461Z,114.50
2018-04-02T00:55:23.449Z,114.10
2018-04-02T00:56:23.438Z,115.80
2018-04-02T00:57:23.430Z,115.20
2018-04-02T00:58:23.421Z,114.80
2018-04-02T00:59:23.410Z,115.50
2018-04-02T01:00:23.401Z,114.10
2018-04-02T01:01:23.387Z,113.10
2018-04-02T01:02:23.378Z,113.80
2018-04-02T01:03:23.371Z,114.00
2018-04-02T01:04:23.360Z,115.60
2018-04-02T01:05:23.422Z,112.10
2018-04-02T01:06:23.344Z,112.20
2018-04-02T01:07:23.333Z,112.70
2018-04-02T01:08:23.316Z,112.50
2018-04-02T01:09:23.306Z,111.40
2018-04-02T01:10:23.301Z,111.30
2018-04-02T01:11:23.288Z,116.50
2018-04-02T01:12:23.284Z,114.20
2018-04-02T01:13:23.269Z,113.00
2018-04-02T01:14:23.258Z,113.80
2018-04-02T01:15:23.245Z,113.20
2018-04-02T01:16:23.234Z,113.90
2018-04-02T01:17:23.223Z,115.50
2018-04-02T01:18:23.220Z,116.60
2018-04-02T01:19:23.205Z,113.00
2018-04-02T01:20:23.197Z,116.30
2018-04-02T01:21:23.188Z,114.50
2018-04-02T01:22:23.174Z,114.10
2018-04-02T01:23:23.163Z,113.80
2018-04-02T01:24:23.157Z,117.50
2018-04-02T01:25:23.147Z,112.90
2018-04-02T01:26:23.136Z,115.10
2018-04-02T01:27:23.123Z,115.50
2018-04-02T01:28:23.116Z,113.90
2018-04-02T01:29:23.102Z,116.70
2018-04-02T01:30:23.094Z,112.50
2018-04-02T01:31:23.080Z,115.40
2018-04-02T01:32:23.078Z,112.60
2018-04-02T01:33:23.062Z,112.80
2018-04-02T01:34:23.053Z,113.00
2018-04-02T01:35:23.040Z,113.10
2018-04-02T01:36:23.029Z,114.50
2018-04-02T01:37:23.019Z,113.20
2018-04-02T01:38:25.746Z,115.10
2018-04-02T01:39:23.002Z,112.00
2018-04-02T01:40:22.995Z,111.90
2018-04-02T01:41:22.977Z,112.60
2018-04-02T01:42:22.969Z,115.30
2018-04-02T01:43:22.965Z,114.80
2018-04-02T01:44:22.951Z,117.50
2018-04-02T01:45:22.942Z,118.20
2018-04-02T01:46:22.951Z,115.80
2018-04-02T01:47:22.922Z,117.60
2018-04-02T01:48:22.932Z,119.90
2018-04-02T01:49:22.899Z,116.90
2018-04-02T01:50:22.886Z,117.30
2018-04-02T01:51:22.878Z,118.70
2018-04-02T01:52:22.871Z,119.00
2018-04-02T01:53:22.860Z,117.40
2018-04-02T01:54:22.851Z,117.00
2018-04-02T01:55:22.840Z,119.10
2018-04-02T01:56:22.825Z,116.20
2018-04-02T01:57:22.815Z,120.50
2018-04-02T01:58:22.807Z,118.20
2018-04-02T01:59:22.802Z,118.80
2018-04-02T02:00:22.789Z,117.10
2018-04-02T02:01:22.778Z,117.20
2018-04-02T02:02:22.764Z,116.00
2018-04-02T02:03:22.758Z,118.60
2018-04-02T02:04:23.737Z,120.40
2018-04-02T02:05:22.738Z,116.60
2018-04-02T02:06:22.731Z,117.60
2018-04-02T02:07:22.720Z,118.30
2018-04-02T02:08:22.706Z,117.80
2018-04-02T02:09:22.695Z,116.00
2018-04-02T02:10:22.692Z,113.60
2018-04-02T02:11:22.676Z,118.50
2018-04-02T02:12:22.670Z,117.10
2018-04-02T02:13:22.659Z,114.70
2018-04-02T02:14:22.647Z,116.30
2018-04-02T02:15:22.638Z,115.20
2018-04-02T02:16:22.627Z,112.50
2018-04-02T02:17:22.617Z,115.70
2018-04-02T02:18:22.603Z,116.00
2018-04-02T02:19:22.593Z,117.10
2018-04-02T02:20:22.584Z,116.20
2018-04-02T02:21:22.574Z,114.10
2018-04-02T02:22:22.570Z,114.90
2018-04-02T02:23:22.560Z,113.30
2018-04-02T02:24:22.545Z,112.70
2018-04-02T02:25:22.532Z,115.10
2018-04-02T02:26:22.526Z,115.70
2018-04-02T02:27:22.513Z,112.60
2018-04-02T02:28:22.508Z,112.50
2018-04-02T02:29:22.502Z,114.70
2018-04-02T02:30:22.486Z,114.00
2018-04-02T02:31:22.478Z,112.90
2018-04-02T02:32:22.468Z,110.80
2018-04-02T02:33:22.454Z,113.30
2018-04-02T02:34:22.446Z,112.40
2018-04-02T02:35:22.440Z,111.60
2018-04-02T02:36:22.429Z,115.50
2018-04-02T02:37:22.416Z,111.70
2018-04-02T02:38:22.409Z,111.90
2018-04-02T02:39:22.395Z,114.70
2018-04-02T02:40:22.387Z,116.80
2018-04-02T02:41:22.374Z,112.40
2018-04-02T02:42:22.374Z,114.50
2018-04-02T02:43:22.358Z,114.50
2018-04-02T02:44:22.347Z,113.30
2018-04-02T02:45:22.336Z,116.70
2018-04-02T02:46:22.328Z,114.10
2018-04-02T02:47:22.312Z,113.90
2018-04-02T02:48:22.305Z,114.40
2018-04-02T02:49:22.297Z,115.60
2018-04-02T02:50:22.288Z,113.00
2018-04-02T02:51:22.275Z,115.50
2018-04-02T02:52:22.266Z,112.00
2018-04-02T02:53:22.258Z,114.00
2018-04-02T02:54:22.246Z,114.30
2018-04-02T02:55:22.234Z,115.50
2018-04-02T02:56:22.229Z,112.20
2018-04-02T02:57:22.215Z,109.90
2018-04-02T02:58:22.202Z,109.10
2018-04-02T02:59:22.204Z,99.20
2018-04-02T03:00:22.184Z,100.70
2018-04-02T03:01:22.170Z,102.80
2018-04-02T03:02:22.160Z,103.10
2018-04-02T03:03:22.158Z,101.00
2018-04-02T03:04:22.148Z,103.10
2018-04-02T03:05:22.137Z,103.10
2018-04-02T03:06:22.126Z,100.30
2018-04-02T03:07:22.114Z,102.70
2018-04-02T03:08:22.101Z,102.10
2018-04-02T03:09:22.095Z,105.20
2018-04-02T03:10:22.103Z,104.70
2018-04-02T03:11:22.076Z,105.00
2018-04-02T03:12:22.064Z,104.70
2018-04-02T03:13:22.058Z,106.30
2018-04-02T03:14:22.044Z,104.10
2018-04-02T03:15:22.041Z,105.80
2018-04-02T03:16:22.024Z,104.10
2018-04-02T03:17:22.014Z,102.80
2018-04-02T03:18:21.999Z,103.10
2018-04-02T03:19:21.993Z,100.90
2018-04-02T03:20:21.980Z,102.10
2018-04-02T03:21:21.968Z,102.40
2018-04-02T03:22:21.958Z,98.70
2018-04-02T03:23:21.952Z,101.60
2018-04-02T03:24:21.947Z,97.00
2018-04-02T03:25:21.931Z,97.90
2018-04-02T03:26:21.920Z,96.40
2018-04-02T03:27:21.911Z,97.30
2018-04-02T03:28:21.899Z,96.60
2018-04-02T03:29:21.891Z,96.30
2018-04-02T03:30:21.878Z,91.90
2018-04-02T03:31:21.873Z,91.30
2018-04-02T03:32:21.862Z,90.80
2018-04-02T03:33:21.852Z,92.60
2018-04-02T03:34:21.840Z,90.40
2018-04-02T03:35:21.827Z,89.90
2018-04-02T03:36:21.819Z,90.40
2018-04-02T03:37:21.817Z,90.20
2018-04-02T03:38:21.801Z,90.40
2018-04-02T03:39:21.795Z,88.30
2018-04-02T03:40:21.779Z,91.70
2018-04-02T03:41:21.771Z,89.70
2018-04-02T03:42:21.765Z,88.80
2018-04-02T03:43:21.747Z,90.20
2018-04-02T03:44:21.741Z,90.30
2018-04-02T03:45:21.728Z,91.50
2018-04-02T03:46:21.720Z,91.80
2018-04-02T03:47:21.711Z,95.00
2018-04-02T03:48:21.695Z,94.20
2018-04-02T03:49:21.685Z,90.10
2018-04-02T03:50:21.677Z,95.90
2018-04-02T03:51:21.669Z,94.50
2018-04-02T03:52:21.657Z,90.40
2018-04-02T03:53:21.647Z,96.60
2018-04-02T03:54:21.640Z,93.30
2018-04-02T03:55:21.624Z,91.70
2018-04-02T03:56:21.617Z,92.20
2018-04-02T03:57:21.608Z,91.50
2018-04-02T03:58:21.600Z,92.30
2018-04-02T03:59:21.589Z,91.80
2018-04-02T04:00:21.578Z,87.60
2018-04-02T04:01:21.564Z,88.40
2018-04-02T04:02:21.554Z,86.30
2018-04-02T04:03:21.543Z,86.40
2018-04-02T04:04:21.538Z,87.70
2018-04-02T04:05:21.526Z,88.90
2018-04-02T04:06:21.517Z,86.90
2018-04-02T04:07:21.509Z,87.10
2018-04-02T04:08:21.497Z,86.60
2018-04-02T04:09:21.481Z,87.60
2018-04-02T04:10:21.471Z,87.60
2018-04-02T04:11:21.466Z,86.80
2018-04-02T04:12:21.456Z,86.50
2018-04-02T04:13:21.445Z,87.10
2018-04-02T04:14:21.435Z,89.80
2018-04-02T04:15:21.424Z,87.00
2018-04-02T04:16:21.410Z,89.50
2018-04-02T04:17:21.398Z,87.70
2018-04-02T04:18:21.394Z,89.20
2018-04-02T04:19:21.382Z,86.20
2018-04-02T04:20:21.373Z,85.20
2018-04-02T04:21:21.364Z,86.40
2018-04-02T04:22:21.355Z,86.00
2018-04-02T04:23:21.345Z,84.70
2018-04-02T04:24:21.331Z,87.30
2018-04-02T04:25:21.318Z,85.00
2018-04-02T04:26:21.310Z,85.40
2018-04-02T04:27:21.301Z,86.40
2018-04-02T04:28:21.292Z,84.50
2018-04-02T04:29:21.281Z,82.90
2018-04-02T04:30:21.271Z,79.00
2018-04-02T04:31:21.257Z,80.00
2018-04-02T04:32:21.271Z,78.70
2018-04-02T04:33:21.241Z,77.40
2018-04-02T04:34:21.230Z,78.30
2018-04-02T04:35:21.220Z,74.10
2018-04-02T04:36:21.211Z,78.70
2018-04-02T04:37:21.198Z,76.30
2018-04-02T04:38:21.188Z,76.60
2018-04-02T04:39:21.176Z,73.20
2018-04-02T04:40:21.241Z,73.50
2018-04-02T04:41:21.154Z,76.40
2018-04-02T04:42:21.152Z,79.90
2018-04-02T04:43:21.138Z,79.00
2018-04-02T04:44:21.131Z,81.80
2018-04-02T04:45:21.116Z,84.30
2018-04-02T04:46:21.111Z,84.70
2018-04-02T04:47:21.092Z,84.20
2018-04-02T04:48:21.088Z,86.30
2018-04-02T04:49:21.077Z,88.50
2018-04-02T04:50:21.064Z,88.80
2018-04-02T04:51:21.052Z,91.70
2018-04-02T04:52:21.043Z,90.50
2018-04-02T04:53:21.034Z,89.20
2018-04-02T04:54:21.027Z,90.30
2018-04-02T04:55:21.015Z,88.20
2018-04-02T04:56:21.005Z,87.50
2018-04-02T04:57:21.002Z,88.90
2018-04-02T04:58:20.981Z,88.50
2018-04-02T04:59:20.996Z,87.80
2018-04-02T05:00:20.964Z,85.40
2018-04-02T05:01:20.952Z,87.80
2018-04-02T05:02:20.944Z,88.70
2018-04-02T05:03:20.933Z,88.70
2018-04-02T05:04:20.923Z,93.30
2018-04-02T05:05:20.946Z,92.40
2018-04-02T05:06:20.900Z,91.50
2018-04-02T05:07:20.891Z,93.70
2018-04-02T05:08:20.881Z,96.10
2018-04-02T05:09:20.874Z,99.50
2018-04-02T05:10:20.860Z,94.60
2018-04-02T05:11:20.847Z,100.40
2018-04-02T05:12:20.860Z,98.10
2018-04-02T05:13:20.824Z,99.00
2018-04-02T05:14:20.816Z,99.60
2018-04-02T05:15:20.808Z,101.60
2018-04-02T05:16:20.798Z,100.10
2018-04-02T05:17:20.785Z,99.20
2018-04-02T05:18:20.776Z,99.90
2018-04-02T05:19:20.762Z,103.60
2018-04-02T05:20:20.752Z,103.10
2018-04-02T05:21:20.739Z,100.70
2018-04-02T05:22:20.730Z,102.30
2018-04-02T05:23:20.722Z,100.90
2018-04-02T05:24:20.713Z,105.20
2018-04-02T05:25:20.703Z,102.30
2018-04-02T05:26:20.692Z,102.60
2018-04-02T05:27:20.679Z,100.10
2018-04-02T05:28:20.669Z,103.90
2018-04-02T05:29:20.661Z,104.10
2018-04-02T05:30:20.650Z,103.50
2018-04-02T05:31:20.640Z,102.60
2018-04-02T05:32:20.631Z,103.20
2018-04-02T05:33:20.617Z,102.60
2018-04-02T05:34:20.604Z,104.90
2018-04-02T05:35:20.597Z,102.30
2018-04-02T05:36:20.588Z,99.20
2018-04-02T05:37:20.582Z,103.10
2018-04-02T05:38:20.565Z,104.50
2018-04-02T05:39:20.553Z,101.10
2018-04-02T05:40:20.550Z,101.90
2018-04-02T05:41:20.532Z,102.10
2018-04-02T05:42:20.524Z,102.40
2018-04-02T05:43:20.528Z,102.10
2018-04-02T05:44:20.505Z,102.50
2018-04-02T05:45:20.543Z,104.10
2018-04-02T05:46:20.485Z,104.50
2018-04-02T05:47:20.472Z,105.00
2018-04-02T05:48:20.461Z,102.20
2018-04-02T05:49:20.450Z,103.00
2018-04-02T05:50:20.438Z,103.00
2018-04-02T05:51:20.432Z,101.40
2018-04-02T05:52:20.421Z,102.70
2018-04-02T05:53:20.415Z,103.10
2018-04-02T05:54:20.399Z,104.30
2018-04-02T05:55:20.385Z,103.10
2018-04-02T05:56:20.374Z,105.50
2018-04-02T05:57:20.368Z,104.80
2018-04-02T05:58:20.357Z,100.70
2018-04-02T05:59:20.349Z,103.40
2018-04-02T06:00:20.337Z,105.50
2018-04-02T06:01:20.321Z,103.60
2018-04-02T06:02:20.313Z,101.60
2018-04-02T06:03:20.302Z,103.00
2018-04-02T06:04:20.295Z,101.80
2018-04-02T06:05:20.285Z,103.90
2018-04-02T06:06:20.274Z,102.70
2018-04-02T06:07:20.267Z,101.60
2018-04-02T06:08:20.252Z,102.40
2018-04-02T06:09:20.239Z,104.00
2018-04-02T06:10:20.232Z,101.90
2018-04-02T06:11:20.226Z,101.00
2018-04-02T06:12:20.209Z,103.40
2018-04-02T06:13:20.205Z,99.70
2018-04-02T06:14:20.192Z,101.70
2018-04-02T06:15:20.182Z,101.20
2018-04-02T06:16:20.171Z,101.60
2018-04-02T06:17:20.157Z,99.10
2018-04-02T06:18:20.149Z,98.90
2018-04-02T06:19:20.137Z,100.00
2018-04-02T06:20:20.131Z,99.40
2018-04-02T06:21:20.120Z,100.90
2018-04-02T06:22:20.118Z,101.20
2018-04-02T06:23:20.101Z,101.40
2018-04-02T06:24:20.090Z,97.90
2018-04-02T06:25:20.079Z,100.20
2018-04-02T06:26:20.067Z,99.40
2018-04-02T06:27:20.060Z,101.00
2018-04-02T06:28:20.046Z,100.10
2018-04-02T06:29:20.043Z,99.00
2018-04-02T06:30:20.030Z,100.20
2018-04-02T06:31:20.014Z,101.20
2018-04-02T06:32:20.006Z,102.10
2018-04-02T06:33:19.996Z,103.70
2018-04-02T06:34:19.991Z,104.30
2018-04-02T06:35:19.982Z,104.00
2018-04-02T06:36:19.970Z,105.90
2018-04-02T06:37:19.959Z,102.10
2018-04-02T06:38:19.946Z,100.50
2018-04-02T06:39:19.937Z,99.70
2018-04-02T06:40:19.938Z,97.80
2018-04-02T06:41:19.920Z,95.80
2018-04-02T06:42:19.910Z,95.30
2018-04-02T06:43:19.902Z,94.50
2018-04-02T06:44:19.889Z,89.00
2018-04-02T06:45:19.877Z,90.30
2018-04-02T06:46:19.878Z,92.80
2018-04-02T06:47:19.885Z,90.40
2018-04-02T06:48:19.855Z,90.40
2018-04-02T06:49:19.850Z,89.00
2018-04-02T06:50:19.832Z,87.80
2018-04-02T06:51:19.824Z,85.60
2018-04-02T06:52:19.814Z,86.50
2018-04-02T06:53:19.802Z,86.00
2018-04-02T06:54:19.792Z,85.30
2018-04-02T06:55:19.783Z,88.00
2018-04-02T06:56:19.772Z,90.10
2018-04-02T06:57:19.773Z,87.20
2018-04-02T06:58:19.761Z,87.80
2018-04-02T06:59:19.746Z,85.90
2018-04-02T07:00:19.737Z,89.80
2018-04-02T07:01:19.729Z,86.60
2018-04-02T07:02:19.721Z,86.30
2018-04-02T07:03:19.711Z,85.30
2018-04-02T07:04:19.702Z,83.90
2018-04-02T07:05:19.691Z,84.50
2018-04-02T07:06:19.681Z,84.70
2018-04-02T07:07:19.671Z,85.30
2018-04-02T07:08:19.669Z,86.00
2018-04-02T07:09:19.653Z,83.50
2018-04-02T07:10:19.644Z,85.90
2018-04-02T07:11:19.634Z,85.50
2018-04-02T07:12:19.626Z,86.10
2018-04-02T07:13:19.614Z,85.20
2018-04-02T07:14:19.605Z,83.80
2018-04-02T07:15:19.600Z,85.20
2018-04-02T07:16:19.590Z,87.10
2018-04-02T07:17:19.597Z,83.40
2018-04-02T07:18:19.569Z,86.30
2018-04-02T07:19:19.563Z,87.10
2018-04-02T07:20:19.551Z,88.60
2018-04-02T07:21:19.539Z,86.20
2018-04-02T07:22:19.535Z,87.10
2018-04-02T07:23:19.527Z,86.50
2018-04-02T07:24:19.517Z,85.40
2018-04-02T07:25:19.507Z,87.00
2018-04-02T07:26:19.500Z,82.20
2018-04-02T07:27:19.484Z,85.10
2018-04-02T07:28:19.481Z,85.50
2018-04-02T07:29:19.467Z,88.30
2018-04-02T07:30:19.462Z,86.10
2018-04-02T07:31:19.451Z,87.90
2018-04-02T07:32:19.443Z,87.20
2018-04-02T07:33:19.433Z,86.00
2018-04-02T07:34:19.418Z,87.50
2018-04-02T07:35:19.410Z,87.60
2018-04-02T07:36:19.403Z,86.80
2018-04-02T07:37:19.447Z,86.10
2018-04-02T07:38:19.387Z,88.00
2018-04-02T07:39:19.382Z,86.20
2018-04-02T07:40:19.366Z,88.00
2018-04-02T07:41:19.356Z,87.60
2018-04-02T07:42:19.346Z,85.60
2018-04-02T07:43:19.341Z,88.20
2018-04-02T07:44:19.336Z,83.70
2018-04-02T07:45:19.329Z,83.20
2018-04-02T07:46:19.318Z,81.40
2018-04-02T07:47:19.305Z,79.10
2018-04-02T07:48:19.294Z,81.80
2018-04-02T07:49:19.291Z,77.90
2018-04-02T07:50:19.283Z,76.80
2018-04-02T07:51:19.273Z,75.80
2018-04-02T07:52:19.271Z,72.90
2018-04-02T07:53:19.256Z,71.90
2018-04-02T07:54:19.247Z,71.80
2018-04-02T07:55:19.235Z,72.30
2018-04-02T07:56:19.235Z,72.50
2018-04-02T07:57:19.226Z,67.60
2018-04-02T07:58:19.222Z,68.90
2018-04-02T07:59:19.211Z,67.90
2018-04-02T08:00:19.202Z,70.00
2018-04-02T08:01:19.193Z,66.00
2018-04-02T08:02:19.183Z,65.50
2018-04-02T08:03:19.180Z,65.00
2018-04-02T08:04:19.219Z,66.70
2018-04-02T08:05:19.163Z,65.30
2018-04-02T08:06:19.157Z,63.80
2018-04-02T08:07:19.150Z,63.50
2018-04-02T08:08:19.139Z,63.00
2018-04-02T08:09:19.133Z,62.20
2018-04-02T08:10:19.129Z,61.60
2018-04-02T08:11:19.116Z,62.80
2018-04-02T08:12:19.112Z,61.00
2018-04-02T08:13:19.105Z,60.40
2018-04-02T08:14:19.094Z,61.60
2018-04-02T08:15:19.088Z,62.10
2018-04-02T08:16:19.091Z,61.70
2018-04-02T08:17:19.076Z,63.90
2018-04-02T08:18:19.068Z,62.80
2018-04-02T08:19:19.064Z,61.20
2018-04-02T08:20:19.060Z,61.70
2018-04-02T08:21:19.066Z,59.40
2018-04-02T08:22:19.038Z,56.80
2018-04-02T08:23:19.035Z,58.90
2018-04-02T08:24:19.031Z,55.00
2018-04-02T08:25:19.062Z,58.10
2018-04-02T08:26:19.015Z,59.80
2018-04-02T08:27:19.012Z,59.50
2018-04-02T08:28:19.053Z,60.30
2018-04-02T08:29:18.996Z,59.70
2018-04-02T08:30:18.989Z,60.60
2018-04-02T08:31:18.983Z,57.30
2018-04-02T08:32:18.975Z,56.70
2018-04-02T08:33:18.972Z,57.80
2018-04-02T08:34:18.967Z,57.90
2018-04-02T08:35:18.959Z,56.60
2018-04-02T08:36:18.951Z,57.30
2018-04-02T08:37:18.945Z,55.70
2018-04-02T08:38:18.944Z,55.50
2018-04-02T08:39:18.937Z,54.80
2018-04-02T08:40:18.937Z,54.70
2018-04-02T08:41:18.925Z,53.00
2018-04-02T08:42:18.923Z,50.80
2018-04-02T08:43:18.912Z,48.40
2018-04-02T08:44:18.946Z,48.90
2018-04-02T08:45:18.943Z,51.00
2018-04-02T08:46:18.900Z,51.30
2018-04-02T08:47:18.896Z,52.10
2018-04-02T08:48:18.887Z,52.90
2018-04-02T08:49:18.881Z,51.70
2018-04-02T08:50:18.880Z,50.00
2018-04-02T08:51:18.874Z,49.30
2018-04-02T08:52:18.869Z,49.70
2018-04-02T08:53:18.863Z,46.10
2018-04-02T08:54:18.859Z,48.50
2018-04-02T08:55:18.855Z,48.50
2018-04-02T08:56:18.846Z,50.10
2018-04-02T08:57:18.839Z,49.80
2018-04-02T08:58:18.837Z,49.60
2018-04-02T08:59:18.833Z,49.90
2018-04-02T09:00:18.829Z,50.50
2018-04-02T09:01:18.819Z,50.70
2018-04-02T09:02:18.815Z,49.80
2018-04-02T09:03:18.811Z,49.00
2018-04-02T09:04:18.805Z,48.90
2018-04-02T09:05:18.811Z,48.40
2018-04-02T09:06:18.797Z,49.80
2018-04-02T09:07:18.786Z,50.70
2018-04-02T09:08:18.781Z,51.30
2018-04-02T09:09:18.810Z,50.00
2018-04-02T09:10:18.773Z,49.50
2018-04-02T09:11:18.769Z,49.20
2018-04-02T09:12:18.819Z,47.50
2018-04-02T09:13:18.770Z,47.90
2018-04-02T09:14:18.747Z,46.80
2018-04-02T09:15:18.742Z,46.80
2018-04-02T09:16:18.740Z,45.50
2018-04-02T09:17:18.736Z,45.40
2018-04-02T09:18:18.728Z,41.60
2018-04-02T09:19:18.723Z,41.20
2018-04-02T09:20:18.719Z,41.90
2018-04-02T09:21:18.711Z,39.30
2018-04-02T09:22:18.707Z,40.20
2018-04-02T09:23:18.706Z,38.70
2018-04-02T09:24:18.695Z,38.90
2018-04-02T09:25:18.690Z,38.00
2018-04-02T09:26:18.690Z,37.50
2018-04-02T09:27:18.678Z,35.70
2018-04-02T09:28:18.677Z,37.40
2018-04-02T09:29:18.667Z,38.50
2018-04-02T09:30:18.678Z,39.10
2018-04-02T09:31:18.664Z,38.60
2018-04-02T09:32:18.654Z,36.80
2018-04-02T09:33:18.648Z,37.10
2018-04-02T09:34:18.645Z,36.40
2018-04-02T09:35:18.641Z,32.70
2018-04-02T09:36:18.636Z,31.80
2018-04-02T09:37:18.633Z,31.80
2018-04-02T09:38:18.627Z,32.30
2018-04-02T09:39:18.622Z,33.80
2018-04-02T09:40:18.618Z,34.30
2018-04-02T09:41:18.610Z,34.90
2018-04-02T09:42:18.608Z,34.00
2018-04-02T09:43:18.604Z,33.70
2018-04-02T09:44:18.598Z,32.90
2018-04-02T09:45:18.598Z,33.50
2018-04-02T09:46:18.594Z,34.30
2018-04-02T09:47:18.583Z,34.20
2018-04-02T09:48:18.580Z,35.50
2018-04-02T09:49:18.575Z,37.40
2018-04-02T09:50:18.573Z,37.30
2018-04-02T09:51:18.573Z,36.10
2018-04-02T09:52:18.560Z,37.10
2018-04-02T09:53:18.562Z,36.00
2018-04-02T09:54:18.609Z,35.30
2018-04-02T09:55:18.550Z,35.50
2018-04-02T09:56:18.547Z,31.40
2018-04-02T09:57:18.541Z,29.90
2018-04-02T09:58:18.538Z,30.40
2018-04-02T09:59:18.570Z,29.30
2018-04-02T10:00:18.528Z,30.40
2018-04-02T10:01:18.522Z,29.30
2018-04-02T10:02:18.518Z,28.70
2018-04-02T10:03:18.517Z,30.00
2018-04-02T10:04:18.515Z,30.90
2018-04-02T10:05:18.507Z,31.00
2018-04-02T10:06:18.502Z,29.90
2018-04-02T10:07:18.499Z,29.50
2018-04-02T10:08:18.486Z,30.60
2018-04-02T10:09:18.483Z,29.70
2018-04-02T10:10:18.557Z,31.00
2018-04-02T10:11:18.474Z,29.50
2018-04-02T10:12:18.470Z,29.70
2018-04-02T10:13:18.463Z,30.30
2018-04-02T10:14:18.458Z,29.10
2018-04-02T10:15:18.451Z,29.60
2018-04-02T10:16:18.448Z,30.90
2018-04-02T10:17:18.445Z,30.90
2018-04-02T10:18:18.440Z,31.80
2018-04-02T10:19:18.434Z,30.40
2018-04-02T10:20:19.346Z,31.10
2018-04-02T10:21:18.420Z,31.20
2018-04-02T10:22:18.418Z,31.20
2018-04-02T10:23:18.414Z,31.10
2018-04-02T10:24:18.408Z,32.00
2018-04-02T10:25:18.401Z,31.80
2018-04-02T10:26:18.398Z,32.20
2018-04-02T10:27:18.390Z,30.50
2018-04-02T10:28:18.387Z,30.60
2018-04-02T10:29:18.456Z,28.70
2018-04-02T10:30:18.380Z,29.10
2018-04-02T10:31:18.372Z,30.20
2018-04-02T10:32:18.368Z,30.70
2018-04-02T10:33:18.368Z,30.60
2018-04-02T10:34:18.354Z,30.90
2018-04-02T10:35:18.353Z,30.60
2018-04-02T10:36:18.347Z,30.20
2018-04-02T10:37:18.354Z,31.40
2018-04-02T10:38:18.340Z,28.20
2018-04-02T10:39:18.337Z,27.30
2018-04-02T10:40:18.327Z,27.50
2018-04-02T10:41:18.327Z,26.30
2018-04-02T10:42:18.321Z,26.00
2018-04-02T10:43:18.323Z,24.90
2018-04-02T10:44:18.316Z,27.70
2018-04-02T10:45:18.310Z,28.70
2018-04-02T10:46:18.304Z,27.00
2018-04-02T10:47:18.298Z,26.90
2018-04-02T10:48:18.296Z,28.90
2018-04-02T10:49:18.293Z,29.60
2018-04-02T10:50:18.291Z,27.90
2018-04-02T10:51:18.293Z,26.20
2018-04-02T10:52:18.285Z,27.10
2018-04-02T10:53:18.278Z,27.00
2018-04-02T10:54:18.275Z,26.20
2018-04-02T10:55:18.272Z,26.80
2018-04-02T10:56:18.269Z,26.40
2018-04-02T10:57:18.270Z,26.60
2018-04-02T10:58:18.267Z,26.90
2018-04-02T10:59:18.267Z,23.10
2018-04-02T11:00:18.262Z,23.30
2018-04-02T11:01:18.260Z,21.90
2018-04-02T11:02:18.255Z,23.10
2018-04-02T11:03:18.260Z,22.50
2018-04-02T11:04:18.260Z,23.40
2018-04-02T11:05:18.257Z,24.40
2018-04-02T11:06:18.351Z,23.00
2018-04-02T11:07:18.250Z,25.20
2018-04-02T11:08:18.250Z,24.30
2018-04-02T11:09:18.250Z,22.20
2018-04-02T11:10:18.250Z,24.30
2018-04-02T11:11:18.248Z,23.10
2018-04-02T11:12:18.249Z,23.20
2018-04-02T11:13:18.254Z,22.20
2018-04-02T11:14:18.246Z,24.30
2018-04-02T11:15:18.247Z,24.20
2018-04-02T11:16:18.251Z,24.80
2018-04-02T11:17:18.246Z,23.10
2018-04-02T11:18:18.247Z,21.70
2018-04-02T11:19:18.245Z,21.90
2018-04-02T11:20:18.244Z,21.40
2018-04-02T11:21:18.239Z,21.60
2018-04-02T11:22:18.245Z,20.50
2018-04-02T11:23:18.244Z,20.60
2018-04-02T11:24:18.244Z,20.60
2018-04-02T11:25:18.243Z,20.10
2018-04-02T11:26:18.242Z,21.10
2018-04-02T11:27:18.232Z,21.10
2018-04-02T11:28:18.236Z,22.00
2018-04-02T11:29:18.233Z,21.90
2018-04-02T11:30:18.232Z,21.80
2018-04-02T11:31:18.226Z,21.80
2018-04-02T11:32:18.226Z,21.70
2018-04-02T11:33:18.220Z,21.80
2018-04-02T11:34:18.217Z,22.30
2018-04-02T11:35:18.216Z,23.10
2018-04-02T11:36:18.215Z,22.10
2018-04-02T11:37:18.211Z,21.30
2018-04-02T11:38:18.209Z,22.10
2018-04-02T11:39:18.202Z,22.50
2018-04-02T11:40:18.198Z,22.30
2018-04-02T11:41:18.194Z,20.70
2018-04-02T11:42:18.199Z,21.40
2018-04-02T11:43:18.187Z,21.00
2018-04-02T11:44:18.190Z,21.80
2018-04-02T11:45:18.178Z,21.80
2018-04-02T11:46:18.177Z,20.70
2018-04-02T11:47:18.180Z,21.40
2018-04-02T11:48:18.168Z,22.20
2018-04-02T11:49:18.160Z,21.80
2018-04-02T11:50:18.158Z,20.50
2018-04-02T11:51:18.152Z,19.80
2018-04-02T11:52:18.146Z,20.10
2018-04-02T11:53:18.148Z,19.30
2018-04-02T11:54:18.138Z,16.80
2018-04-02T11:55:18.136Z,16.80
2018-04-02T11:56:18.131Z,16.90
2018-04-02T11:57:18.123Z,17.20
2018-04-02T11:58:18.117Z,16.60
2018-04-02T11:59:18.113Z,16.50
2018-04-02T12:00:18.107Z,16.20
2018-04-02T12:01:18.150Z,13.80
2018-04-02T12:02:18.098Z,12.70
2018-04-02T12:03:18.093Z,13.20
2018-04-02T12:04:18.084Z,11.90
2018-04-02T12:05:18.082Z,12.50
2018-04-02T12:06:18.081Z,12.40
2018-04-02T12:07:18.080Z,12.00
2018-04-02T12:08:18.064Z,11.90
2018-04-02T12:09:18.111Z,12.50
2018-04-02T12:10:18.056Z,12.80
2018-04-02T12:11:18.050Z,12.40
2018-04-02T12:12:18.043Z,12.10
2018-04-02T12:13:18.039Z,10.60
2018-04-02T12:14:18.036Z,7.50
2018-04-02T12:15:18.028Z,7.40
2018-04-02T12:16:18.025Z,6.80
2018-04-02T12:17:18.015Z,6.30
2018-04-02T12:18:18.009Z,5.80
2018-04-02T12:19:18.002Z,6.30
2018-04-02T12:20:18.000Z,5.50
2018-04-02T12:21:18.001Z,6.00
2018-04-02T12:22:17.990Z,5.90
2018-04-02T12:23:17.980Z,6.00
2018-04-02T12:24:17.975Z,5.50
2018-04-02T12:25:17.967Z,5.50
2018-04-02T12:26:17.964Z,5.60
2018-04-02T12:27:17.962Z,5.40
2018-04-02T12:28:17.954Z,4.90
2018-04-02T12:29:17.960Z,4.90
2018-04-02T12:30:17.939Z,5.20
2018-04-02T12:31:17.930Z,5.70
2018-04-02T12:32:17.937Z,5.50
2018-04-02T12:33:17.925Z,5.60
2018-04-02T12:34:17.918Z,5.40
2018-04-02T12:35:17.911Z,6.20
2018-04-02T12:36:17.905Z,5.00
2018-04-02T12:37:17.894Z,5.70
2018-04-02T12:38:17.891Z,5.20
2018-04-02T12:39:17.886Z,5.80
2018-04-02T12:40:17.886Z,5.90
2018-04-02T12:41:17.875Z,5.30
2018-04-02T12:42:17.872Z,5.30
2018-04-02T12:43:17.912Z,5.40
2018-04-02T12:44:17.868Z,5.00